Time;durP1;ratioP1;P1;durP2;ratioP2;P2;SDS_P1;SDS_P2;PMS_P1;PMS_P2;Temp;Humidity;BMP_temperature;BMP_pressure;BME280_temperature;BME280_humidity;BME280_pressure;Samples;Min_cycle;Max_cycle;Signal;HPM_P1;HPM_P2
2021/11/25 00:00:23;;;;;;;38.00;20.48;;;;;;;;;;4915051;29;20141;-68
2021/11/25 00:02:49;;;;;;;39.63;22.05;;;;;;;;;;4915042;29;20020;-72
2021/11/25 00:05:16;;;;;;;39.03;20.95;;;;;;;;;;4915243;29;20032;-67
2021/11/25 00:07:42;;;;;;;48.67;25.25;;;;;;;;;;4915059;29;20024;-67
2021/11/25 00:10:09;;;;;;;50.20;26.65;;;;;;;;;;4915014;29;20042;-68
2021/11/25 00:12:35;;;;;;;50.25;27.85;;;;;;;;;;4914852;29;20034;-67
2021/11/25 00:15:01;;;;;;;45.67;25.70;;;;;;;;;;4915038;29;20496;-67
2021/11/25 00:17:27;;;;;;;47.55;26.45;;;;;;;;;;4914845;29;20024;-68
2021/11/25 00:19:53;;;;;;;48.30;25.98;;;;;;;;;;4914900;29;20038;-68
2021/11/25 00:22:19;;;;;;;47.72;25.13;;;;;;;;;;4914564;29;20059;-67
2021/11/25 00:24:45;;;;;;;44.42;24.23;;;;;;;;;;4914611;29;20048;-69
2021/11/25 00:27:11;;;;;;;46.90;24.40;;;;;;;;;;4914861;29;20099;-69
2021/11/25 00:29:37;;;;;;;41.42;23.85;;;;;;;;;;4897817;29;20460;-68
2021/11/25 00:32:04;;;;;;;41.95;23.27;;;;;;;;;;4914537;29;20087;-67
2021/11/25 00:34:30;;;;;;;39.63;21.55;;;;;;;;;;4914696;29;20028;-68
2021/11/25 00:36:56;;;;;;;36.47;20.48;;;;;;;;;;4914618;29;20096;-74
2021/11/25 00:39:22;;;;;;;38.30;20.88;;;;;;;;;;4914624;29;20032;-68
2021/11/25 00:41:48;;;;;;;41.35;22.15;;;;;;;;;;4914704;29;20032;-66
2021/11/25 00:44:15;;;;;;;38.92;21.50;;;;;;;;;;4914653;29;20040;-69
2021/11/25 00:46:41;;;;;;;44.00;22.20;;;;;;;;;;4914683;29;20115;-75
2021/11/25 00:49:08;;;;;;;40.05;21.67;;;;;;;;;;4914679;29;20056;-68
2021/11/25 00:51:34;;;;;;;40.25;20.90;;;;;;;;;;4914457;29;20028;-68
2021/11/25 00:54:00;;;;;;;41.15;21.77;;;;;;;;;;4914533;29;20047;-73
2021/11/25 00:56:26;;;;;;;38.67;21.45;;;;;;;;;;4916181;29;20035;-66
2021/11/25 00:58:53;;;;;;;39.53;21.58;;;;;;;;;;4918302;29;20059;-66
2021/11/25 01:01:19;;;;;;;41.67;22.02;;;;;;;;;;4918351;29;20048;-66
2021/11/25 01:03:45;;;;;;;39.03;21.55;;;;;;;;;;4918633;29;20044;-66
2021/11/25 01:06:11;;;;;;;39.92;22.02;;;;;;;;;;4918250;29;20028;-66
2021/11/25 01:08:37;;;;;;;40.92;21.10;;;;;;;;;;4918254;29;20039;-66
2021/11/25 01:11:04;;;;;;;35.97;20.33;;;;;;;;;;4918436;29;20032;-66
2021/11/25 01:13:30;;;;;;;37.50;20.95;;;;;;;;;;4918194;29;20060;-66
2021/11/25 01:15:56;;;;;;;36.13;19.50;;;;;;;;;;4918194;29;20032;-66
2021/11/25 01:18:22;;;;;;;35.92;20.70;;;;;;;;;;4918123;29;20037;-66
2021/11/25 01:20:49;;;;;;;36.42;20.52;;;;;;;;;;4918167;29;20083;-66
2021/11/25 01:23:17;;;;;;;35.35;19.23;;;;;;;;;;4917974;29;20048;-66
2021/11/25 01:25:44;;;;;;;37.83;19.55;;;;;;;;;;4917956;29;20397;-65
2021/11/25 01:28:13;;;;;;;36.17;20.35;;;;;;;;;;4918240;29;20028;-66
2021/11/25 01:30:43;;;;;;;35.42;20.08;;;;;;;;;;4918024;29;20024;-69
2021/11/25 01:33:09;;;;;;;39.33;21.13;;;;;;;;;;4917816;29;20536;-68
2021/11/25 01:35:36;;;;;;;36.95;20.77;;;;;;;;;;4917822;29;20369;-68
2021/11/25 01:38:03;;;;;;;37.45;20.48;;;;;;;;;;4917723;29;20047;-65
2021/11/25 01:40:29;;;;;;;41.17;21.38;;;;;;;;;;4917755;29;20381;-66
2021/11/25 01:42:55;;;;;;;37.45;21.33;;;;;;;;;;4917580;29;20163;-66
2021/11/25 01:45:24;;;;;;;38.38;20.90;;;;;;;;;;4917787;29;20040;-65
2021/11/25 01:47:50;;;;;;;39.65;21.40;;;;;;;;;;4917555;29;20024;-65
2021/11/25 01:50:17;;;;;;;39.05;22.10;;;;;;;;;;4917448;29;20384;-65
2021/11/25 01:52:44;;;;;;;42.33;22.20;;;;;;;;;;4917070;29;20115;-68
2021/11/25 01:55:10;;;;;;;37.42;21.88;;;;;;;;;;4917440;29;20032;-65
2021/11/25 01:57:36;;;;;;;38.05;21.60;;;;;;;;;;4917222;29;20388;-69
2021/11/25 02:00:07;;;;;;;45.10;23.23;;;;;;;;;;4917347;29;20108;-67
2021/11/25 06:16:44;;;;;;;31.85;16.88;;;;;;;;;;5261262;23;20115;-62
2021/11/25 06:19:10;;;;;;;32.05;17.40;;;;;;;;;;4900211;29;20488;-62
2021/11/25 06:21:37;;;;;;;31.23;17.02;;;;;;;;;;4916850;29;20035;-63
2021/11/25 06:24:03;;;;;;;31.63;17.63;;;;;;;;;;4899826;29;20044;-62
2021/11/25 06:26:29;;;;;;;32.40;17.95;;;;;;;;;;4916794;29;20107;-62
2021/11/25 06:28:55;;;;;;;32.50;17.05;;;;;;;;;;4916406;29;20033;-62
2021/11/25 06:31:22;;;;;;;29.25;16.52;;;;;;;;;;4916733;29;20535;-62
2021/11/25 06:33:48;;;;;;;27.23;15.60;;;;;;;;;;4917074;29;20036;-62
2021/11/25 06:36:14;;;;;;;28.90;15.77;;;;;;;;;;4916769;29;20060;-62
2021/11/25 06:38:41;;;;;;;28.63;16.20;;;;;;;;;;4916780;29;20376;-62
2021/11/25 06:41:08;;;;;;;29.00;16.52;;;;;;;;;;4916259;29;20468;-61
2021/11/25 06:43:36;;;;;;;28.05;15.35;;;;;;;;;;4916493;29;20040;-63
2021/11/25 06:46:02;;;;;;;27.17;15.02;;;;;;;;;;4899538;29;20032;-62
2021/11/25 06:48:29;;;;;;;27.17;15.90;;;;;;;;;;4916467;29;20527;-63
2021/11/25 06:50:55;;;;;;;32.70;16.10;;;;;;;;;;4916712;29;20028;-65
2021/11/25 06:53:21;;;;;;;29.90;16.02;;;;;;;;;;4916126;29;20032;-63
2021/11/25 06:55:47;;;;;;;33.45;16.42;;;;;;;;;;4916549;29;20060;-63
2021/11/25 06:58:13;;;;;;;29.90;16.00;;;;;;;;;;4916269;29;20031;-63
2021/11/25 07:00:40;;;;;;;30.58;16.38;;;;;;;;;;4916443;29;20118;-62
2021/11/25 07:03:06;;;;;;;28.15;15.45;;;;;;;;;;4916514;29;20495;-62
2021/11/25 07:05:32;;;;;;;30.95;16.05;;;;;;;;;;4916647;29;20459;-62
2021/11/25 07:07:58;;;;;;;28.27;15.90;;;;;;;;;;4915862;29;20030;-62
2021/11/25 07:10:25;;;;;;;28.70;16.10;;;;;;;;;;4915812;29;20472;-62
2021/11/25 07:12:51;;;;;;;28.65;15.35;;;;;;;;;;4898799;29;20024;-62
2021/11/25 07:15:19;;;;;;;27.38;16.00;;;;;;;;;;4898553;29;20056;-63
2021/11/25 07:17:46;;;;;;;28.10;16.38;;;;;;;;;;4898624;29;20061;-62
2021/11/25 07:20:13;;;;;;;32.00;17.27;;;;;;;;;;4897158;29;20025;-62
2021/11/25 07:22:39;;;;;;;31.77;17.63;;;;;;;;;;4896771;29;20036;-62
2021/11/25 07:25:06;;;;;;;34.65;18.92;;;;;;;;;;4896779;29;20119;-61
2021/11/25 07:27:32;;;;;;;35.40;18.65;;;;;;;;;;4896653;29;20044;-61
2021/11/25 07:29:58;;;;;;;35.25;19.45;;;;;;;;;;4896759;29;20036;-63
2021/11/25 07:32:25;;;;;;;41.38;20.55;;;;;;;;;;4896411;29;20056;-62
2021/11/25 07:34:51;;;;;;;41.83;22.40;;;;;;;;;;4896910;29;20044;-61
2021/11/25 07:37:18;;;;;;;44.67;22.63;;;;;;;;;;4896712;29;20097;-63
2021/11/25 07:39:44;;;;;;;43.08;22.17;;;;;;;;;;4896749;29;20088;-62
2021/11/25 07:42:10;;;;;;;41.33;22.08;;;;;;;;;;4896668;29;20045;-62
2021/11/25 07:44:36;;;;;;;43.90;22.13;;;;;;;;;;4896374;29;20095;-62
2021/11/25 07:47:02;;;;;;;39.60;22.40;;;;;;;;;;4896476;29;20056;-63
2021/11/25 07:49:28;;;;;;;30.30;17.92;;;;;;;;;;4896532;29;20033;-63
2021/11/25 07:51:59;;;;;;;32.47;17.67;;;;;;;;;;4896329;29;20025;-63
2021/11/25 07:54:26;;;;;;;27.27;16.15;;;;;;;;;;4878736;29;20040;-63
2021/11/25 07:56:53;;;;;;;29.77;16.05;;;;;;;;;;4894947;29;20048;-63
2021/11/25 07:59:19;;;;;;;28.05;15.68;;;;;;;;;;4895419;29;20079;-65
2021/11/25 08:01:45;;;;;;;25.27;14.80;;;;;;;;;;4878375;29;20088;-62
2021/11/25 08:04:11;;;;;;;26.35;14.85;;;;;;;;;;4878901;29;20040;-62
2021/11/25 08:06:37;;;;;;;24.90;14.40;;;;;;;;;;4878252;29;20021;-61
2021/11/25 08:09:04;;;;;;;26.65;14.02;;;;;;;;;;4894950;29;20100;-61
2021/11/25 08:11:30;;;;;;;28.92;14.55;;;;;;;;;;4877950;29;20515;-61
2021/11/25 08:13:56;;;;;;;26.83;13.77;;;;;;;;;;4877846;29;20115;-63
2021/11/25 08:16:22;;;;;;;24.58;13.85;;;;;;;;;;4877727;29;20453;-62
2021/11/25 08:18:48;;;;;;;24.35;14.02;;;;;;;;;;4878243;29;20029;-61
2021/11/25 08:21:14;;;;;;;26.30;15.45;;;;;;;;;;4894694;29;20020;-62
2021/11/25 08:23:40;;;;;;;28.10;14.80;;;;;;;;;;4877892;29;20496;-60
2021/11/25 08:26:07;;;;;;;24.63;14.35;;;;;;;;;;4880441;29;20020;-63
2021/11/25 08:28:36;;;;;;;24.17;14.18;;;;;;;;;;4894781;29;20475;-63
2021/11/25 08:31:02;;;;;;;23.45;14.15;;;;;;;;;;4894798;29;20349;-62
2021/11/25 08:33:29;;;;;;;25.10;14.48;;;;;;;;;;4894609;29;20017;-62
2021/11/25 08:35:56;;;;;;;26.40;14.50;;;;;;;;;;4894791;29;20483;-61
2021/11/25 08:38:22;;;;;;;24.45;14.25;;;;;;;;;;4894647;29;20036;-62
2021/11/25 08:40:48;;;;;;;22.65;14.07;;;;;;;;;;4894522;29;20127;-62
2021/11/25 08:43:14;;;;;;;26.30;14.70;;;;;;;;;;4894641;29;20045;-62
2021/11/25 08:45:42;;;;;;;25.45;15.23;;;;;;;;;;4895396;29;20400;-63
2021/11/25 08:48:11;;;;;;;22.95;14.02;;;;;;;;;;4879256;29;20111;-62
2021/11/25 08:50:41;;;;;;;24.65;14.45;;;;;;;;;;4896723;29;20056;-62
2021/11/25 08:53:08;;;;;;;23.67;14.35;;;;;;;;;;4895126;29;20063;-63
2021/11/25 08:55:37;;;;;;;21.17;13.43;;;;;;;;;;4895375;29;20036;-62
2021/11/25 08:58:04;;;;;;;22.15;14.18;;;;;;;;;;4894928;29;20080;-62
2021/11/25 09:00:35;;;;;;;21.85;13.90;;;;;;;;;;4897842;29;20369;-62
2021/11/25 09:03:02;;;;;;;22.27;13.15;;;;;;;;;;4895187;29;20037;-62
2021/11/25 09:05:29;;;;;;;22.10;13.40;;;;;;;;;;4894739;29;20035;-62
2021/11/25 09:07:56;;;;;;;23.95;13.55;;;;;;;;;;4895191;29;20025;-62
2021/11/25 09:10:22;;;;;;;23.95;13.15;;;;;;;;;;4895137;29;20021;-61
2021/11/25 09:12:50;;;;;;;23.38;13.48;;;;;;;;;;4894045;29;20029;-61
2021/11/25 09:15:16;;;;;;;23.65;14.07;;;;;;;;;;4894015;29;20389;-61
2021/11/25 09:17:42;;;;;;;23.50;14.50;;;;;;;;;;4894403;29;20504;-61
2021/11/25 09:20:09;;;;;;;22.20;13.07;;;;;;;;;;4897931;29;20024;-61
2021/11/25 09:22:38;;;;;;;25.60;13.65;;;;;;;;;;4897583;29;20020;-61
2021/11/25 09:25:05;;;;;;;22.98;13.80;;;;;;;;;;4897242;29;20523;-60
2021/11/25 09:27:31;;;;;;;23.15;13.55;;;;;;;;;;4895193;29;20035;-61
2021/11/25 09:29:57;;;;;;;22.75;13.80;;;;;;;;;;4897498;29;20376;-61
2021/11/25 09:32:23;;;;;;;24.75;14.43;;;;;;;;;;4897579;29;20057;-60
2021/11/25 09:34:51;;;;;;;24.58;14.32;;;;;;;;;;4897829;29;20025;-60
2021/11/25 09:37:17;;;;;;;24.80;15.00;;;;;;;;;;4897530;29;20025;-62
2021/11/25 09:39:43;;;;;;;23.63;13.65;;;;;;;;;;4897743;29;20508;-61
2021/11/25 09:42:09;;;;;;;25.35;14.50;;;;;;;;;;4898968;29;20059;-60
2021/11/25 09:44:36;;;;;;;23.45;13.63;;;;;;;;;;4882647;29;20040;-63
2021/11/25 09:47:03;;;;;;;21.50;13.30;;;;;;;;;;4883101;29;20436;-63
2021/11/25 09:49:30;;;;;;;22.80;13.95;;;;;;;;;;4899965;29;20028;-63
2021/11/25 09:51:57;;;;;;;22.40;13.90;;;;;;;;;;4900239;29;20396;-62
2021/11/25 09:54:23;;;;;;;23.10;14.02;;;;;;;;;;4882606;29;20039;-63
2021/11/25 09:56:50;;;;;;;19.98;13.43;;;;;;;;;;4899894;29;20039;-61
2021/11/25 09:59:16;;;;;;;23.38;14.25;;;;;;;;;;4882970;29;20028;-62
2021/11/25 10:01:43;;;;;;;24.88;14.70;;;;;;;;;;4898690;29;20039;-60
2021/11/25 10:04:09;;;;;;;22.63;14.27;;;;;;;;;;4899664;29;20050;-62
2021/11/25 10:06:49;;;;;;;23.88;14.35;;;;;;;;;;4899598;29;20052;-62
2021/11/25 10:09:16;;;;;;;22.10;13.82;;;;;;;;;;4899760;29;20489;-60
2021/11/25 10:11:42;;;;;;;22.85;13.48;;;;;;;;;;4899460;29;20056;-63
2021/11/25 10:14:12;;;;;;;26.67;14.55;;;;;;;;;;4899477;29;20028;-62
2021/11/25 10:16:40;;;;;;;22.00;13.48;;;;;;;;;;4898316;29;20049;-64
2021/11/25 10:19:13;;;;;;;22.02;13.57;;;;;;;;;;4879815;29;20081;-63
2021/11/25 10:21:41;;;;;;;24.92;14.05;;;;;;;;;;4896858;29;20048;-62
2021/11/25 10:24:07;;;;;;;22.45;14.80;;;;;;;;;;4896638;29;20073;-63
2021/11/25 10:26:34;;;;;;;24.38;13.73;;;;;;;;;;4896663;29;20028;-61
2021/11/25 10:29:01;;;;;;;24.35;15.07;;;;;;;;;;4896448;29;20032;-62
2021/11/25 10:31:32;;;;;;;23.02;14.18;;;;;;;;;;4897041;29;20028;-62
2021/11/25 10:34:05;;;;;;;23.30;14.32;;;;;;;;;;4896927;29;20198;-63
2021/11/25 10:41:55;;;;;;;20.30;13.20;;;;;;;;;;4896294;29;20059;-63
2021/11/25 10:44:23;;;;;;;23.13;13.27;;;;;;;;;;4879694;29;21077;-61
2021/11/25 10:46:52;;;;;;;26.00;14.38;;;;;;;;;;4893936;29;20488;-62
2021/11/25 10:49:19;;;;;;;21.80;13.25;;;;;;;;;;4896330;29;20115;-60
2021/11/25 10:51:46;;;;;;;25.98;13.82;;;;;;;;;;4896483;29;20086;-60
2021/11/25 10:54:17;;;;;;;22.38;13.05;;;;;;;;;;4879383;29;20020;-64
2021/11/25 10:56:47;;;;;;;22.15;14.00;;;;;;;;;;4896395;29;20107;-63
2021/11/25 10:59:15;;;;;;;24.10;13.40;;;;;;;;;;4896549;29;20025;-63
2021/11/25 11:01:42;;;;;;;23.48;14.20;;;;;;;;;;4879320;29;20032;-62
2021/11/25 11:04:09;;;;;;;24.33;13.70;;;;;;;;;;4876560;29;20043;-62
2021/11/25 11:06:37;;;;;;;21.95;12.73;;;;;;;;;;4879320;29;20020;-62
2021/11/25 11:09:05;;;;;;;22.00;13.25;;;;;;;;;;4879203;29;20039;-62
2021/11/25 11:11:32;;;;;;;21.60;13.15;;;;;;;;;;4896340;29;20024;-62
2021/11/25 11:17:19;;;;;;;19.40;12.70;;;;;;;;;;4893810;29;20427;-61
2021/11/25 11:20:06;;;;;;;25.88;14.15;;;;;;;;;;4878781;29;20021;-60
2021/11/25 11:22:33;;;;;;;24.50;14.48;;;;;;;;;;4893587;29;20036;-62
2021/11/25 11:25:06;;;;;;;26.75;14.70;;;;;;;;;;4895559;29;20033;-61
2021/11/25 11:27:32;;;;;;;27.63;14.52;;;;;;;;;;4894162;29;20021;-61
2021/11/25 11:29:59;;;;;;;22.23;14.25;;;;;;;;;;4896297;29;20056;-61
2021/11/25 11:32:25;;;;;;;24.55;13.90;;;;;;;;;;4896178;29;20027;-62
2021/11/25 11:34:52;;;;;;;21.58;13.45;;;;;;;;;;4895641;29;20715;-63
2021/11/25 11:37:20;;;;;;;19.65;12.88;;;;;;;;;;4895461;29;20048;-61
2021/11/25 11:39:49;;;;;;;23.58;14.55;;;;;;;;;;4894559;29;20127;-62
2021/11/25 11:42:16;;;;;;;24.35;14.68;;;;;;;;;;4878157;29;20121;-62
2021/11/25 11:44:44;;;;;;;23.02;14.15;;;;;;;;;;4895242;29;20072;-62
2021/11/25 11:47:11;;;;;;;23.52;14.15;;;;;;;;;;4897474;29;20036;-62
2021/11/25 11:49:38;;;;;;;22.70;14.18;;;;;;;;;;4894718;29;20152;-63
2021/11/25 11:52:04;;;;;;;22.77;14.43;;;;;;;;;;4894912;29;20035;-62
2021/11/25 11:54:39;;;;;;;22.77;14.30;;;;;;;;;;4894916;29;20025;-63
2021/11/25 11:57:26;;;;;;;23.27;13.98;;;;;;;;;;4896087;29;20028;-63
2021/11/25 11:59:52;;;;;;;24.60;14.55;;;;;;;;;;4883566;29;20033;-66
2021/11/25 12:02:37;;;;;;;24.05;14.20;;;;;;;;;;4895053;29;20029;-63
2021/11/25 12:05:03;;;;;;;26.20;15.43;;;;;;;;;;4895712;29;20079;-63
2021/11/25 12:07:29;;;;;;;22.95;14.05;;;;;;;;;;4895992;29;20029;-63
2021/11/25 12:09:56;;;;;;;21.63;13.35;;;;;;;;;;4895353;29;20032;-62
2021/11/25 12:12:22;;;;;;;25.25;14.43;;;;;;;;;;4895335;29;20484;-62
2021/11/25 12:14:50;;;;;;;20.98;13.57;;;;;;;;;;4896044;29;20060;-63
2021/11/25 12:17:23;;;;;;;22.20;13.63;;;;;;;;;;4893810;29;20048;-63
2021/11/25 12:19:49;;;;;;;29.23;14.90;;;;;;;;;;4892075;29;20444;-62
2021/11/25 12:22:15;;;;;;;24.67;14.23;;;;;;;;;;4894586;29;20024;-62
2021/11/25 12:24:49;;;;;;;24.13;15.00;;;;;;;;;;4894760;29;20032;-64
2021/11/25 12:27:17;;;;;;;29.48;14.95;;;;;;;;;;4896584;29;20088;-65
2021/11/25 12:29:48;;;;;;;23.95;13.98;;;;;;;;;;4895329;29;20051;-62
2021/11/25 12:32:27;;;;;;;22.83;14.10;;;;;;;;;;4895235;29;20039;-63
2021/11/25 12:34:55;;;;;;;27.85;16.30;;;;;;;;;;4895776;29;20032;-63
2021/11/25 12:37:52;;;;;;;24.05;14.18;;;;;;;;;;4896031;29;20476;-62
2021/11/25 12:40:18;;;;;;;21.15;12.77;;;;;;;;;;4880138;29;20052;-62
2021/11/25 12:42:53;;;;;;;22.60;14.35;;;;;;;;;;4895302;29;20766;-66
2021/11/25 12:45:23;;;;;;;23.70;13.63;;;;;;;;;;4895346;29;20051;-66
2021/11/25 12:48:12;;;;;;;21.60;13.15;;;;;;;;;;4895021;29;20127;-65
2021/11/25 12:50:38;;;;;;;27.17;14.63;;;;;;;;;;4895082;29;20111;-64
2021/11/25 12:53:08;;;;;;;23.20;14.10;;;;;;;;;;4897437;29;20139;-64
2021/11/25 12:55:34;;;;;;;27.83;14.18;;;;;;;;;;4899670;29;20036;-67
2021/11/25 12:58:01;;;;;;;22.88;13.93;;;;;;;;;;4899153;29;20037;-65
2021/11/25 13:00:29;;;;;;;21.17;14.00;;;;;;;;;;4899723;29;20036;-64
2021/11/25 13:03:01;;;;;;;22.67;13.70;;;;;;;;;;4898839;29;20044;-63
2021/11/25 13:05:27;;;;;;;25.70;14.52;;;;;;;;;;4899355;29;20103;-66
2021/11/25 13:07:53;;;;;;;25.33;15.50;;;;;;;;;;4898113;29;20017;-63
2021/11/25 13:10:31;;;;;;;37.08;21.10;;;;;;;;;;4897680;29;20032;-61
2021/11/25 13:13:07;;;;;;;25.25;16.30;;;;;;;;;;4897503;29;20040;-60
2021/11/25 13:15:34;;;;;;;26.50;14.73;;;;;;;;;;4897514;29;20040;-65
2021/11/25 13:18:00;;;;;;;27.95;15.85;;;;;;;;;;4897597;29;20052;-65
2021/11/25 13:20:42;;;;;;;25.77;15.38;;;;;;;;;;4897698;29;20082;-64
2021/11/25 13:23:08;;;;;;;20.63;14.10;;;;;;;;;;4896475;29;20032;-65
2021/11/25 13:25:34;;;;;;;25.60;15.27;;;;;;;;;;4897586;29;20029;-66
2021/11/25 13:28:00;;;;;;;23.67;14.68;;;;;;;;;;4897867;29;20029;-63
2021/11/25 13:30:26;;;;;;;26.83;15.38;;;;;;;;;;4897785;29;20374;-63
2021/11/25 13:32:52;;;;;;;23.50;14.55;;;;;;;;;;4897576;29;20049;-64
2021/11/25 13:35:19;;;;;;;27.35;15.20;;;;;;;;;;4897324;29;20496;-63
2021/11/25 13:37:54;;;;;;;24.83;15.07;;;;;;;;;;4897488;29;20028;-63
2021/11/25 13:40:22;;;;;;;29.05;15.60;;;;;;;;;;4896146;29;20028;-64
2021/11/25 13:42:50;;;;;;;27.05;15.25;;;;;;;;;;4896648;29;20040;-63
2021/11/25 13:45:21;;;;;;;24.67;15.30;;;;;;;;;;4897138;29;20477;-64
2021/11/25 13:47:48;;;;;;;23.75;15.20;;;;;;;;;;4894231;29;20033;-64
2021/11/25 13:50:16;;;;;;;28.00;15.48;;;;;;;;;;4897421;29;20048;-65
2021/11/25 13:52:44;;;;;;;24.83;14.73;;;;;;;;;;4896849;29;20084;-64
2021/11/25 13:55:12;;;;;;;24.00;14.13;;;;;;;;;;4897267;29;20028;-64
2021/11/25 13:57:39;;;;;;;24.70;14.70;;;;;;;;;;4897094;29;20453;-64
2021/11/25 14:00:06;;;;;;;23.55;14.30;;;;;;;;;;4897184;29;20025;-64
2021/11/25 14:02:33;;;;;;;21.30;13.75;;;;;;;;;;4896526;29;20048;-64
2021/11/25 14:05:00;;;;;;;21.60;13.30;;;;;;;;;;4895585;29;20071;-64
2021/11/25 14:07:27;;;;;;;24.55;13.85;;;;;;;;;;4896675;29;20496;-66
2021/11/25 14:10:03;;;;;;;22.80;14.13;;;;;;;;;;4896645;29;20031;-65
2021/11/25 14:12:30;;;;;;;26.27;15.05;;;;;;;;;;4894477;29;20052;-63
2021/11/25 14:14:56;;;;;;;27.05;15.23;;;;;;;;;;4896391;29;20025;-65
2021/11/25 14:17:23;;;;;;;23.60;15.00;;;;;;;;;;4895959;29;20587;-65
2021/11/25 14:19:51;;;;;;;27.20;16.10;;;;;;;;;;4896543;29;20040;-64
2021/11/25 14:22:21;;;;;;;28.30;16.80;;;;;;;;;;4896313;29;20516;-66
2021/11/25 14:24:48;;;;;;;32.30;18.45;;;;;;;;;;4898827;29;20253;-64
2021/11/25 14:30:07;;;;;;;36.78;20.17;;;;;;;;;;4896689;29;20813;-64
2021/11/25 14:32:40;;;;;;;35.30;19.95;;;;;;;;;;4894433;29;20028;-63
2021/11/25 14:35:07;;;;;;;35.17;19.45;;;;;;;;;;4896623;29;20342;-66
2021/11/25 14:37:35;;;;;;;36.42;20.00;;;;;;;;;;4896540;29;20036;-64
2021/11/25 14:40:11;;;;;;;40.03;22.10;;;;;;;;;;4896167;29;20485;-63
2021/11/25 14:42:37;;;;;;;38.58;20.73;;;;;;;;;;4878693;29;20029;-65
2021/11/25 14:45:15;;;;;;;37.25;20.73;;;;;;;;;;4861831;29;20093;-64
2021/11/25 14:47:41;;;;;;;35.28;20.00;;;;;;;;;;4861081;29;20141;-65
2021/11/25 14:50:08;;;;;;;39.15;20.05;;;;;;;;;;4878666;29;20041;-66
2021/11/25 14:52:39;;;;;;;37.78;20.08;;;;;;;;;;4878244;29;20108;-64
2021/11/25 14:55:14;;;;;;;37.72;21.05;;;;;;;;;;4877930;29;20017;-63
2021/11/25 14:57:41;;;;;;;36.90;19.88;;;;;;;;;;4878208;29;20037;-62
2021/11/25 15:00:13;;;;;;;38.13;20.98;;;;;;;;;;4877874;29;20029;-64
2021/11/25 15:02:44;;;;;;;33.70;19.65;;;;;;;;;;4877429;29;20033;-65
2021/11/25 15:05:12;;;;;;;36.05;19.45;;;;;;;;;;4890538;29;20444;-65
2021/11/25 15:07:39;;;;;;;32.50;19.65;;;;;;;;;;4896956;29;20024;-68
2021/11/25 15:10:05;;;;;;;33.13;18.85;;;;;;;;;;4896754;29;20060;-66
2021/11/25 15:12:31;;;;;;;30.10;17.83;;;;;;;;;;4897239;29;20037;-67
2021/11/25 15:15:04;;;;;;;31.55;17.80;;;;;;;;;;4896721;29;20033;-63
2021/11/25 15:17:32;;;;;;;27.83;16.45;;;;;;;;;;4868988;29;20040;-66
2021/11/25 15:19:58;;;;;;;29.75;17.42;;;;;;;;;;4896975;29;20032;-67
2021/11/25 15:22:24;;;;;;;29.02;17.45;;;;;;;;;;4896829;29;20393;-66
2021/11/25 15:24:50;;;;;;;32.00;18.38;;;;;;;;;;4896785;29;20108;-66
2021/11/25 15:27:16;;;;;;;31.23;18.23;;;;;;;;;;4896906;29;20029;-66
2021/11/25 15:29:43;;;;;;;30.98;18.70;;;;;;;;;;4896872;29;20079;-67
2021/11/25 15:32:09;;;;;;;34.38;17.90;;;;;;;;;;4896680;29;20056;-66
2021/11/25 15:34:35;;;;;;;31.77;19.00;;;;;;;;;;4894603;29;20401;-66
2021/11/25 15:37:01;;;;;;;34.00;19.35;;;;;;;;;;4894868;29;20485;-65
2021/11/25 15:39:27;;;;;;;35.20;19.35;;;;;;;;;;4894900;29;20028;-64
2021/11/25 15:41:53;;;;;;;35.20;20.92;;;;;;;;;;4895328;29;20369;-67
2021/11/25 15:44:19;;;;;;;36.58;19.83;;;;;;;;;;4894898;29;20040;-69
2021/11/25 15:46:45;;;;;;;35.90;19.90;;;;;;;;;;4894839;29;20456;-62
2021/11/25 15:49:11;;;;;;;36.47;20.80;;;;;;;;;;4895169;29;20056;-66
2021/11/25 15:51:37;;;;;;;39.78;22.35;;;;;;;;;;4895490;29;20121;-67
2021/11/25 15:54:04;;;;;;;48.55;25.42;;;;;;;;;;4892826;29;20051;-65
2021/11/25 15:56:30;;;;;;;49.35;24.77;;;;;;;;;;4895378;29;20020;-68
2021/11/25 15:58:56;;;;;;;48.90;25.23;;;;;;;;;;4895126;29;20040;-63
2021/11/25 16:01:23;;;;;;;50.10;27.13;;;;;;;;;;4895039;29;20047;-67
2021/11/25 16:03:49;;;;;;;62.17;31.50;;;;;;;;;;4895049;29;20029;-69
2021/11/25 16:06:15;;;;;;;63.75;33.00;;;;;;;;;;4895295;29;20028;-64
2021/11/25 16:08:41;;;;;;;66.18;34.88;;;;;;;;;;4894479;29;20032;-66
2021/11/25 16:11:07;;;;;;;68.35;35.75;;;;;;;;;;4893962;29;20488;-67
2021/11/25 16:13:45;;;;;;;56.42;31.05;;;;;;;;;;4893964;29;20548;-63
2021/11/25 16:16:11;;;;;;;51.30;27.75;;;;;;;;;;4890551;29;20055;-66
2021/11/25 16:18:37;;;;;;;44.08;24.10;;;;;;;;;;4896387;29;20515;-67
2021/11/25 16:21:03;;;;;;;43.83;23.15;;;;;;;;;;4897860;29;20484;-68
2021/11/25 16:23:30;;;;;;;45.85;23.35;;;;;;;;;;4894276;29;20041;-66
2021/11/25 16:25:56;;;;;;;42.20;21.60;;;;;;;;;;4893547;29;20115;-66
2021/11/25 16:28:22;;;;;;;40.75;22.33;;;;;;;;;;4894857;29;20028;-65
2021/11/25 16:30:50;;;;;;;47.20;22.33;;;;;;;;;;4895944;29;20075;-64
2021/11/25 16:33:18;;;;;;;40.33;23.33;;;;;;;;;;4895809;29;20033;-64
2021/11/25 16:35:44;;;;;;;44.03;23.27;;;;;;;;;;4896191;29;20064;-63
2021/11/25 16:38:11;;;;;;;46.80;24.27;;;;;;;;;;4895736;29;20029;-63
2021/11/25 16:40:39;;;;;;;43.40;23.25;;;;;;;;;;4895913;29;20024;-63
2021/11/25 16:43:05;;;;;;;44.63;24.33;;;;;;;;;;4895891;29;20485;-64
2021/11/25 16:45:32;;;;;;;43.08;22.83;;;;;;;;;;4895769;29;20450;-65
2021/11/25 16:50:43;;;;;;;42.85;23.52;;;;;;;;;;4895934;29;20459;-62
2021/11/25 16:53:09;;;;;;;45.58;23.90;;;;;;;;;;4895681;29;20028;-63
2021/11/25 16:55:37;;;;;;;45.83;24.40;;;;;;;;;;4895925;29;20068;-65
2021/11/25 16:58:03;;;;;;;48.90;26.02;;;;;;;;;;4895693;29;20044;-64
2021/11/25 17:00:30;;;;;;;49.75;25.30;;;;;;;;;;4895574;29;20104;-64
2021/11/25 17:02:59;;;;;;;44.67;24.17;;;;;;;;;;4895141;29;20706;-64
2021/11/25 17:05:26;;;;;;;54.22;27.27;;;;;;;;;;4895479;29;20485;-65
2021/11/25 17:07:52;;;;;;;56.15;29.55;;;;;;;;;;4895514;29;20438;-63
2021/11/25 17:10:18;;;;;;;58.47;28.40;;;;;;;;;;4895806;29;20063;-63
2021/11/25 17:12:45;;;;;;;49.15;26.55;;;;;;;;;;4895602;29;20467;-63
2021/11/25 17:15:12;;;;;;;53.53;28.02;;;;;;;;;;4895565;29;20037;-63
2021/11/25 17:17:38;;;;;;;49.35;26.00;;;;;;;;;;4895047;29;20048;-64
2021/11/25 17:20:06;;;;;;;52.60;27.23;;;;;;;;;;4895395;29;20366;-66
2021/11/25 17:22:32;;;;;;;43.88;25.23;;;;;;;;;;4895283;29;20029;-63
2021/11/25 17:24:58;;;;;;;45.00;24.80;;;;;;;;;;4895382;29;20044;-63
2021/11/25 17:27:24;;;;;;;41.88;23.90;;;;;;;;;;4895656;29;20028;-65
2021/11/25 17:29:50;;;;;;;41.72;23.38;;;;;;;;;;4895412;29;20057;-63
2021/11/25 17:32:16;;;;;;;46.08;24.60;;;;;;;;;;4895281;29;20033;-63
2021/11/25 17:34:43;;;;;;;47.90;25.52;;;;;;;;;;4895487;29;20485;-65
2021/11/25 17:37:09;;;;;;;48.50;23.05;;;;;;;;;;4895325;29;20043;-65
2021/11/25 17:39:36;;;;;;;44.53;23.05;;;;;;;;;;4897294;29;20487;-65
2021/11/25 17:42:02;;;;;;;43.88;22.42;;;;;;;;;;4882224;29;20461;-64
2021/11/25 17:44:28;;;;;;;47.42;23.77;;;;;;;;;;4898874;29;20044;-65
2021/11/25 17:46:54;;;;;;;46.67;25.08;;;;;;;;;;4898640;29;20045;-65
2021/11/25 17:49:20;;;;;;;50.45;26.67;;;;;;;;;;4898346;29;20033;-65
2021/11/25 17:51:46;;;;;;;50.72;26.63;;;;;;;;;;4898814;29;20028;-65
2021/11/25 17:54:13;;;;;;;46.67;25.20;;;;;;;;;;4898339;29;20047;-65
2021/11/25 17:56:39;;;;;;;53.03;26.73;;;;;;;;;;4898449;29;20032;-65
2021/11/25 17:59:05;;;;;;;58.40;28.95;;;;;;;;;;4898551;29;20119;-64
2021/11/25 18:01:31;;;;;;;65.05;31.83;;;;;;;;;;4898625;29;20111;-64
2021/11/25 18:03:58;;;;;;;71.57;34.28;;;;;;;;;;4898475;29;20028;-64
2021/11/25 18:06:24;;;;;;;74.63;36.70;;;;;;;;;;4898539;29;20040;-64
2021/11/25 18:08:50;;;;;;;78.82;37.28;;;;;;;;;;4898417;29;20077;-63
2021/11/25 18:11:16;;;;;;;71.85;36.45;;;;;;;;;;4898622;29;20025;-64
2021/11/25 18:13:43;;;;;;;68.20;33.10;;;;;;;;;;4898516;29;20107;-64
2021/11/25 18:16:09;;;;;;;59.33;30.05;;;;;;;;;;4896452;29;20040;-65
2021/11/25 18:18:36;;;;;;;55.95;28.80;;;;;;;;;;4896625;29;20496;-64
2021/11/25 18:21:02;;;;;;;55.55;28.10;;;;;;;;;;4897287;29;20104;-66
2021/11/25 18:23:28;;;;;;;49.00;26.70;;;;;;;;;;4896911;29;20028;-64
2021/11/25 18:26:11;;;;;;;46.45;24.65;;;;;;;;;;4896435;29;20040;-64
2021/11/25 18:28:37;;;;;;;44.35;24.85;;;;;;;;;;4894305;29;20021;-65
2021/11/25 18:31:04;;;;;;;46.33;25.00;;;;;;;;;;4895096;29;20564;-67
2021/11/25 18:33:30;;;;;;;49.75;25.80;;;;;;;;;;4894112;29;20032;-65
2021/11/25 18:35:56;;;;;;;53.95;27.30;;;;;;;;;;4894084;29;20024;-66
2021/11/25 18:38:22;;;;;;;51.50;26.58;;;;;;;;;;4895061;29;20036;-63
2021/11/25 18:40:48;;;;;;;52.67;25.80;;;;;;;;;;4894449;29;20032;-65
2021/11/25 18:43:15;;;;;;;44.95;25.55;;;;;;;;;;4895365;29;20039;-65
2021/11/25 18:45:41;;;;;;;51.33;26.25;;;;;;;;;;4895619;29;20506;-66